createdAt,value
2022-09-25T00:00:23.562Z,13.57
2022-09-25T00:02:55.394Z,11.50
2022-09-25T00:05:28.728Z,9.90
2022-09-25T00:08:00.019Z,9.40
2022-09-25T00:10:41.432Z,7.60
2022-09-25T00:13:12.973Z,7.80
2022-09-25T00:15:49.943Z,8.73
2022-09-25T00:18:43.006Z,6.97
2022-09-25T00:21:15.793Z,5.90
2022-09-25T00:23:47.209Z,5.00
2022-09-25T00:26:20.405Z,8.97
2022-09-25T00:28:54.609Z,5.67
2022-09-25T00:31:27.974Z,7.97
2022-09-25T00:34:03.490Z,6.70
2022-09-25T00:36:38.041Z,9.27
2022-09-25T00:39:11.288Z,7.73
2022-09-25T00:41:42.045Z,7.80
2022-09-25T00:44:42.926Z,7.03
2022-09-25T00:47:20.572Z,8.77
2022-09-25T00:49:52.462Z,8.20
2022-09-25T00:52:27.024Z,7.17
2022-09-25T00:55:01.659Z,5.83
2022-09-25T00:57:41.259Z,6.03
2022-09-25T01:00:15.696Z,8.47
2022-09-25T01:02:50.127Z,7.20
2022-09-25T01:05:27.463Z,9.03
2022-09-25T01:08:02.969Z,7.83
2022-09-25T01:10:33.749Z,7.30
2022-09-25T01:13:08.044Z,9.13
2022-09-25T01:15:44.473Z,7.87
2022-09-25T01:18:25.922Z,7.60
2022-09-25T01:21:12.342Z,8.37
2022-09-25T01:24:06.761Z,9.17
2022-09-25T01:27:07.543Z,8.10
2022-09-25T01:29:44.331Z,7.20
2022-09-25T01:32:22.845Z,6.17
2022-09-25T01:34:59.961Z,6.97
2022-09-25T01:37:41.935Z,6.50
2022-09-25T01:40:18.873Z,4.60
2022-09-25T01:42:54.080Z,6.23
2022-09-25T01:45:36.394Z,5.80
2022-09-25T01:48:12.062Z,4.90
2022-09-25T01:50:49.154Z,5.93
2022-09-25T01:53:23.103Z,4.93
2022-09-25T01:55:59.143Z,4.07
2022-09-25T01:58:35.237Z,4.90
2022-09-25T02:01:15.228Z,4.43
2022-09-25T02:03:56.328Z,3.80
2022-09-25T02:06:28.632Z,4.37
2022-09-25T02:09:06.218Z,4.63
2022-09-25T02:11:42.772Z,4.40
2022-09-25T02:14:21.628Z,4.10
2022-09-25T02:17:02.547Z,3.70
2022-09-25T02:19:46.309Z,3.87
2022-09-25T02:22:22.526Z,3.63
2022-09-25T02:24:59.199Z,3.50
2022-09-25T02:27:31.253Z,3.27
2022-09-25T02:30:02.090Z,3.63
2022-09-25T02:32:36.316Z,3.40
2022-09-25T02:35:07.706Z,2.77
2022-09-25T02:37:39.679Z,3.50
2022-09-25T02:40:12.563Z,2.70
2022-09-25T02:42:56.083Z,2.93
2022-09-25T02:45:40.745Z,2.37
2022-09-25T02:48:25.129Z,2.67
2022-09-25T02:51:05.996Z,2.30
2022-09-25T02:53:42.218Z,2.20
2022-09-25T02:56:20.342Z,2.13
2022-09-25T02:58:58.391Z,2.10
2022-09-25T03:01:34.193Z,2.13
2022-09-25T03:04:09.082Z,2.23
2022-09-25T03:06:41.414Z,2.40
2022-09-25T03:09:13.596Z,2.30
2022-09-25T03:11:44.427Z,2.00
2022-09-25T03:14:15.155Z,2.20
2022-09-25T03:16:51.370Z,2.87
2022-09-25T03:19:24.853Z,1.80
2022-09-25T03:21:55.516Z,2.40
2022-09-25T03:24:26.577Z,1.80
2022-09-25T03:26:57.769Z,2.57
2022-09-25T03:29:31.139Z,1.90
2022-09-25T03:32:01.857Z,2.00
2022-09-25T03:34:35.184Z,2.20
2022-09-25T03:37:06.169Z,1.80
2022-09-25T03:39:37.486Z,2.00
2022-09-25T03:42:11.085Z,2.13
2022-09-25T03:44:43.041Z,2.47
2022-09-25T03:47:13.806Z,2.77
2022-09-25T03:49:47.514Z,1.77
2022-09-25T03:52:20.254Z,2.40
2022-09-25T03:54:51.545Z,1.93
2022-09-25T03:57:25.920Z,2.20
2022-09-25T04:00:02.271Z,2.50
2022-09-25T04:02:37.081Z,1.97
2022-09-25T04:05:12.286Z,2.00
2022-09-25T04:07:43.219Z,2.00
2022-09-25T04:10:14.256Z,2.10
2022-09-25T04:12:45.078Z,1.90
2022-09-25T04:15:17.192Z,2.40
2022-09-25T04:17:47.850Z,1.93
2022-09-25T04:20:21.644Z,1.83
2022-09-25T04:22:55.326Z,1.87
2022-09-25T04:25:26.778Z,1.70
2022-09-25T04:27:59.256Z,1.73
2022-09-25T04:30:34.917Z,2.23
2022-09-25T04:33:18.229Z,2.27
2022-09-25T04:35:53.898Z,1.97
2022-09-25T04:38:33.882Z,2.10
2022-09-25T04:41:06.746Z,2.13
2022-09-25T04:43:39.719Z,2.00
2022-09-25T04:46:16.738Z,1.43
2022-09-25T04:48:51.083Z,1.40
2022-09-25T04:51:24.875Z,1.93
2022-09-25T04:53:57.847Z,1.83
2022-09-25T04:56:30.902Z,1.63
2022-09-25T04:59:02.104Z,1.90
2022-09-25T05:01:34.474Z,2.07
2022-09-25T05:04:08.726Z,1.70
2022-09-25T05:06:42.577Z,1.90
2022-09-25T05:09:13.441Z,2.53
2022-09-25T05:11:44.410Z,2.23
2022-09-25T05:14:15.294Z,1.73
2022-09-25T05:16:46.133Z,1.60
2022-09-25T05:19:18.121Z,1.90
2022-09-25T05:21:53.275Z,1.60
2022-09-25T05:24:24.122Z,1.60
2022-09-25T05:26:57.347Z,1.73
2022-09-25T05:29:28.473Z,2.60
2022-09-25T05:31:59.958Z,2.10
2022-09-25T05:34:31.856Z,2.00
2022-09-25T05:37:10.493Z,1.60
2022-09-25T05:39:41.284Z,1.40
2022-09-25T05:42:19.335Z,2.10
2022-09-25T05:44:50.107Z,2.07
2022-09-25T05:47:20.917Z,1.90
2022-09-25T05:49:51.943Z,1.30
2022-09-25T05:52:25.509Z,1.87
2022-09-25T05:54:56.716Z,1.80
2022-09-25T05:57:29.609Z,2.00
2022-09-25T06:00:02.695Z,2.00
2022-09-25T06:02:33.636Z,1.73
2022-09-25T06:05:04.653Z,2.10
2022-09-25T06:07:39.693Z,3.00
2022-09-25T06:10:12.104Z,4.10
2022-09-25T06:12:47.442Z,3.73
2022-09-25T06:15:24.116Z,2.67
2022-09-25T06:17:54.860Z,3.10
2022-09-25T06:20:26.200Z,2.50
2022-09-25T06:23:04.104Z,2.63
2022-09-25T06:25:41.893Z,3.00
2022-09-25T06:28:14.510Z,2.87
2022-09-25T06:30:48.991Z,4.20
2022-09-25T06:33:20.076Z,3.67
2022-09-25T06:35:51.988Z,3.77
2022-09-25T06:38:25.954Z,2.70
2022-09-25T06:40:59.883Z,2.83
2022-09-25T06:43:31.536Z,2.70
2022-09-25T06:46:07.329Z,2.70
2022-09-25T06:48:38.153Z,3.40
2022-09-25T06:51:11.962Z,2.50
2022-09-25T06:53:48.162Z,2.73
2022-09-25T06:56:22.049Z,2.73
2022-09-25T06:58:52.861Z,2.97
2022-09-25T07:01:23.633Z,2.37
2022-09-25T07:03:51.942Z,2.40
2022-09-25T07:06:26.462Z,2.70
2022-09-25T07:08:59.814Z,2.40
2022-09-25T07:11:32.625Z,2.63
2022-09-25T07:14:04.387Z,2.87
2022-09-25T07:16:35.663Z,3.00
2022-09-25T07:19:07.435Z,2.70
2022-09-25T07:21:40.385Z,2.60
2022-09-25T07:24:14.884Z,2.60
2022-09-25T07:26:45.675Z,2.67
2022-09-25T07:29:19.408Z,2.63
2022-09-25T07:31:54.113Z,2.90
2022-09-25T07:34:25.097Z,2.60
2022-09-25T07:36:55.871Z,1.77
2022-09-25T07:39:29.539Z,2.30
2022-09-25T07:42:00.358Z,2.17
2022-09-25T07:44:37.582Z,2.47
2022-09-25T07:47:10.607Z,2.37
2022-09-25T07:49:41.670Z,1.87
2022-09-25T07:52:13.959Z,1.80
2022-09-25T07:54:47.426Z,2.37
2022-09-25T07:57:20.596Z,2.07
2022-09-25T07:59:52.492Z,1.90
2022-09-25T08:02:23.583Z,1.80
2022-09-25T08:04:55.563Z,1.67
2022-09-25T08:07:28.800Z,2.30
2022-09-25T08:10:02.149Z,2.00
2022-09-25T08:12:33.306Z,1.57
2022-09-25T08:15:05.043Z,1.90
2022-09-25T08:17:36.846Z,2.30
2022-09-25T08:20:09.189Z,2.33
2022-09-25T08:22:39.916Z,2.13
2022-09-25T08:25:13.537Z,2.03
2022-09-25T08:27:44.285Z,2.13
2022-09-25T08:30:17.584Z,1.70
2022-09-25T08:32:48.848Z,1.70
2022-09-25T08:35:19.736Z,1.70
2022-09-25T08:37:50.887Z,1.80
2022-09-25T08:40:30.987Z,2.17
2022-09-25T08:43:04.195Z,2.10
2022-09-25T08:45:49.347Z,1.60
2022-09-25T08:48:45.543Z,1.80
2022-09-25T08:51:19.530Z,1.97
2022-09-25T08:53:52.804Z,1.93
2022-09-25T08:56:27.732Z,1.83
2022-09-25T08:59:04.365Z,1.60
2022-09-25T09:01:49.957Z,1.83
2022-09-25T09:04:28.329Z,1.50
2022-09-25T09:07:27.886Z,1.60
2022-09-25T09:10:03.647Z,1.70
2022-09-25T09:12:41.171Z,2.13
2022-09-25T09:15:28.818Z,1.43
2022-09-25T09:18:03.970Z,1.77
2022-09-25T09:20:41.885Z,1.10
2022-09-25T09:23:19.843Z,1.40
2022-09-25T09:25:58.813Z,1.93
2022-09-25T09:29:02.255Z,1.50
2022-09-25T09:31:46.794Z,1.23
2022-09-25T09:35:00.952Z,1.77
2022-09-25T09:37:34.856Z,1.43
2022-09-25T09:40:23.249Z,1.50
2022-09-25T09:43:03.749Z,1.27
2022-09-25T09:45:42.180Z,1.50
2022-09-25T09:48:25.746Z,1.60
2022-09-25T09:51:04.020Z,1.10
2022-09-25T09:53:37.545Z,1.37
2022-09-25T09:56:15.110Z,1.40
2022-09-25T09:58:51.403Z,1.53
2022-09-25T10:01:40.872Z,1.30
2022-09-25T10:04:19.978Z,1.97
2022-09-25T10:06:55.125Z,1.30
2022-09-25T10:09:27.514Z,1.10
2022-09-25T10:12:03.573Z,1.33
2022-09-25T10:14:39.898Z,1.00
2022-09-25T10:17:12.940Z,1.40
2022-09-25T10:19:56.753Z,1.10
2022-09-25T10:22:29.975Z,1.40
2022-09-25T10:25:02.572Z,1.17
2022-09-25T10:27:36.700Z,1.57
2022-09-25T10:30:24.443Z,1.20
2022-09-25T10:33:07.098Z,1.30
2022-09-25T10:35:53.761Z,1.20
2022-09-25T10:38:35.123Z,0.90
2022-09-25T10:41:10.507Z,1.40
2022-09-25T10:43:55.191Z,1.20
2022-09-25T10:46:44.602Z,1.10
2022-09-25T10:49:31.268Z,1.23
2022-09-25T10:52:12.645Z,1.30
2022-09-25T10:54:45.438Z,1.13
2022-09-25T10:57:20.010Z,1.20
2022-09-25T10:59:53.697Z,1.00
2022-09-25T11:02:35.865Z,1.07
2022-09-25T11:05:11.745Z,1.20
2022-09-25T11:07:55.213Z,1.00
2022-09-25T11:10:29.024Z,1.50
2022-09-25T11:13:11.791Z,1.30
2022-09-25T11:15:53.489Z,1.40
2022-09-25T11:18:45.511Z,1.33
2022-09-25T11:21:33.167Z,0.90
2022-09-25T11:24:26.125Z,1.10
2022-09-25T11:27:01.158Z,1.20
2022-09-25T11:29:46.608Z,1.07
2022-09-25T11:32:27.074Z,0.80
2022-09-25T11:35:19.903Z,1.30
2022-09-25T11:38:04.212Z,1.67
2022-09-25T11:41:10.873Z,0.90
2022-09-25T11:44:13.747Z,0.80
2022-09-25T11:46:54.866Z,1.10
2022-09-25T11:49:28.119Z,1.13
2022-09-25T11:52:24.062Z,1.20
2022-09-25T11:55:17.794Z,1.13
2022-09-25T11:58:05.873Z,1.00
2022-09-25T12:00:45.122Z,0.97
2022-09-25T12:03:30.361Z,0.80
2022-09-25T12:06:21.715Z,1.03
2022-09-25T12:09:18.778Z,1.00
2022-09-25T12:12:01.885Z,1.20
2022-09-25T12:14:43.364Z,1.10
2022-09-25T12:17:21.789Z,1.00
2022-09-25T12:19:59.136Z,0.93
2022-09-25T12:22:48.855Z,0.80
2022-09-25T12:25:36.023Z,0.90
2022-09-25T12:28:16.447Z,0.90
2022-09-25T12:30:57.240Z,0.97
2022-09-25T12:33:36.862Z,1.07
2022-09-25T12:36:13.872Z,1.00
2022-09-25T12:38:52.050Z,0.87
2022-09-25T12:41:30.073Z,0.90
2022-09-25T12:44:07.176Z,0.80
2022-09-25T12:46:47.220Z,0.80
2022-09-25T12:49:24.029Z,0.70
2022-09-25T12:51:57.484Z,0.80
2022-09-25T12:54:33.649Z,0.90
2022-09-25T12:57:13.596Z,0.87
2022-09-25T12:59:49.192Z,0.90
2022-09-25T13:02:29.215Z,0.90
2022-09-25T13:05:10.820Z,0.90
2022-09-25T13:07:49.246Z,0.90
2022-09-25T13:10:29.634Z,1.03
2022-09-25T13:13:03.860Z,0.87
2022-09-25T13:15:42.353Z,0.90
2022-09-25T13:18:19.870Z,0.70
2022-09-25T13:20:52.657Z,1.10
2022-09-25T13:23:43.968Z,1.20
2022-09-25T13:26:18.691Z,1.90
2022-09-25T13:28:54.084Z,1.17
2022-09-25T13:31:27.348Z,1.20
2022-09-25T13:34:09.857Z,1.07
2022-09-25T13:36:47.712Z,1.17
2022-09-25T13:39:41.195Z,1.00
2022-09-25T13:42:18.970Z,1.00
2022-09-25T13:44:54.771Z,1.00
2022-09-25T13:47:55.359Z,1.10
2022-09-25T13:50:43.021Z,1.00
2022-09-25T13:53:33.561Z,1.40
2022-09-25T13:56:19.349Z,1.40
2022-09-25T13:59:07.790Z,0.90
2022-09-25T14:01:41.648Z,1.40
2022-09-25T14:04:18.913Z,1.13
2022-09-25T14:06:57.192Z,1.10
2022-09-25T14:09:31.861Z,0.80
2022-09-25T14:12:13.364Z,1.00
2022-09-25T14:14:52.640Z,0.80
2022-09-25T14:17:26.384Z,0.90
2022-09-25T14:20:01.986Z,0.90
2022-09-25T14:22:44.225Z,1.37
2022-09-25T14:25:33.049Z,0.80
2022-09-25T14:28:05.636Z,1.30
2022-09-25T14:30:37.545Z,1.20
2022-09-25T14:33:32.635Z,1.00
2022-09-25T14:36:11.653Z,0.90
2022-09-25T14:39:08.715Z,1.00
2022-09-25T14:42:06.866Z,0.97
2022-09-25T14:45:03.184Z,1.00
2022-09-25T14:47:40.380Z,0.90
2022-09-25T14:50:24.595Z,0.70
2022-09-25T14:53:00.354Z,1.00
2022-09-25T14:55:38.338Z,1.37
2022-09-25T14:58:17.719Z,0.90
2022-09-25T15:00:59.788Z,1.00
2022-09-25T15:03:34.062Z,0.83
2022-09-25T15:06:15.986Z,0.70
2022-09-25T15:08:47.662Z,1.17
2022-09-25T15:11:25.342Z,0.97
2022-09-25T15:14:13.900Z,0.90
2022-09-25T15:17:18.248Z,1.17
2022-09-25T15:19:50.142Z,1.13
2022-09-25T15:22:25.765Z,0.93
2022-09-25T15:24:59.150Z,31.67
2022-09-25T15:27:33.676Z,3.70
2022-09-25T15:30:05.185Z,1.77
2022-09-25T15:32:40.154Z,1.17
2022-09-25T15:35:19.388Z,0.90
2022-09-25T15:37:50.941Z,1.00
2022-09-25T15:40:28.686Z,0.80
2022-09-25T15:43:03.713Z,1.00
2022-09-25T15:45:45.359Z,0.90
2022-09-25T15:48:23.838Z,1.30
2022-09-25T15:50:59.192Z,1.00
2022-09-25T15:53:32.975Z,0.93
2022-09-25T15:56:21.107Z,0.97
2022-09-25T15:58:56.984Z,1.17
2022-09-25T16:01:42.608Z,1.00
2022-09-25T16:04:37.919Z,0.90
2022-09-25T16:07:25.695Z,1.00
2022-09-25T16:09:58.088Z,1.03
2022-09-25T16:12:35.966Z,1.03
2022-09-25T16:15:47.349Z,0.90
2022-09-25T16:18:37.498Z,1.00
2022-09-25T16:21:33.843Z,0.90
2022-09-25T16:24:07.544Z,0.80
2022-09-25T16:26:44.771Z,1.00
2022-09-25T16:29:23.980Z,1.00
2022-09-25T16:32:06.295Z,0.90
2022-09-25T16:34:39.836Z,0.90
2022-09-25T16:37:22.546Z,1.10
2022-09-25T16:40:13.280Z,1.00
2022-09-25T16:42:47.702Z,1.03
2022-09-25T16:45:25.611Z,1.53
2022-09-25T16:48:02.769Z,1.10
2022-09-25T16:50:36.678Z,0.80
2022-09-25T16:53:07.411Z,0.97
2022-09-25T16:55:53.316Z,0.90
2022-09-25T16:58:27.741Z,1.23
2022-09-25T17:00:58.952Z,1.03
2022-09-25T17:03:49.708Z,1.10
2022-09-25T17:06:26.362Z,0.93
2022-09-25T17:08:58.302Z,1.03
2022-09-25T17:11:29.244Z,1.27
2022-09-25T17:14:06.799Z,1.00
2022-09-25T17:16:40.344Z,1.10
2022-09-25T17:19:19.494Z,1.40
2022-09-25T17:21:51.446Z,1.00
2022-09-25T17:24:24.244Z,1.50
2022-09-25T17:26:55.409Z,1.00
2022-09-25T17:29:28.902Z,1.53
2022-09-25T17:32:01.567Z,1.40
2022-09-25T17:34:37.060Z,1.20
2022-09-25T17:37:07.780Z,1.23
2022-09-25T17:39:38.515Z,1.20
2022-09-25T17:42:11.856Z,1.50
2022-09-25T17:44:43.804Z,1.13
2022-09-25T17:47:15.444Z,1.50
2022-09-25T17:49:49.738Z,1.50
2022-09-25T17:52:26.468Z,1.47
2022-09-25T17:54:57.225Z,1.50
2022-09-25T17:57:29.568Z,1.30
2022-09-25T18:00:00.288Z,1.67
2022-09-25T18:02:37.230Z,2.77
2022-09-25T18:05:16.900Z,2.60
2022-09-25T18:07:51.102Z,2.67
2022-09-25T18:10:22.124Z,3.70
2022-09-25T18:12:55.210Z,2.80
2022-09-25T18:15:26.035Z,3.13
2022-09-25T18:17:57.261Z,3.00
2022-09-25T18:20:45.334Z,2.90
2022-09-25T18:23:20.005Z,4.80
2022-09-25T18:25:50.753Z,4.23
2022-09-25T18:28:21.836Z,5.00
2022-09-25T18:30:54.751Z,4.10
2022-09-25T18:33:25.469Z,4.57
2022-09-25T18:36:00.003Z,5.07
2022-09-25T18:38:33.937Z,6.60
2022-09-25T18:41:05.310Z,6.10
2022-09-25T18:43:37.782Z,7.40
2022-09-25T18:46:10.584Z,10.90
2022-09-25T18:48:44.333Z,10.67
2022-09-25T18:51:20.381Z,10.47
2022-09-25T18:53:52.943Z,8.30
2022-09-25T18:56:23.906Z,8.47
2022-09-25T18:58:57.303Z,8.10
2022-09-25T19:01:28.279Z,6.87
2022-09-25T19:03:59.078Z,6.33
2022-09-25T19:06:34.094Z,5.63
2022-09-25T19:09:05.150Z,5.20
2022-09-25T19:11:38.046Z,4.63
2022-09-25T19:14:09.075Z,4.23
2022-09-25T19:16:39.973Z,4.40
2022-09-25T19:19:11.332Z,4.13
2022-09-25T19:21:44.964Z,3.83
2022-09-25T19:24:18.261Z,3.67
2022-09-25T19:26:49.573Z,3.87
2022-09-25T19:29:23.277Z,4.40
2022-09-25T19:31:56.947Z,3.70
2022-09-25T19:34:29.643Z,3.83
2022-09-25T19:37:03.844Z,4.10
2022-09-25T19:39:55.771Z,3.10
2022-09-25T19:42:33.752Z,3.33
2022-09-25T19:45:04.616Z,3.33
2022-09-25T19:47:35.408Z,3.90
2022-09-25T19:50:08.751Z,3.40
2022-09-25T19:52:42.079Z,3.40
2022-09-25T19:55:12.981Z,3.33
2022-09-25T19:57:46.392Z,3.43
2022-09-25T20:00:19.397Z,3.37
2022-09-25T20:02:50.211Z,3.03
2022-09-25T20:05:23.688Z,2.97
2022-09-25T20:07:57.143Z,2.80
2022-09-25T20:10:29.384Z,3.80
2022-09-25T20:13:00.192Z,3.87
2022-09-25T20:15:31.981Z,3.60
2022-09-25T20:18:04.804Z,3.60
2022-09-25T20:20:38.907Z,3.50
2022-09-25T20:23:12.612Z,3.00
2022-09-25T20:25:43.552Z,2.97
2022-09-25T20:28:16.486Z,3.23
2022-09-25T20:30:47.276Z,3.57
2022-09-25T20:33:18.395Z,3.70
2022-09-25T20:35:49.067Z,3.33
2022-09-25T20:38:25.033Z,3.80
2022-09-25T20:40:55.808Z,3.60
2022-09-25T20:43:26.603Z,3.73
2022-09-25T20:46:03.936Z,3.50
2022-09-25T20:48:36.501Z,3.53
2022-09-25T20:51:09.073Z,3.27
2022-09-25T20:53:42.839Z,2.63
2022-09-25T20:56:15.016Z,3.80
2022-09-25T20:58:52.264Z,3.57
2022-09-25T21:01:27.430Z,3.80
2022-09-25T21:04:00.998Z,3.30
2022-09-25T21:06:33.244Z,3.43
2022-09-25T21:09:08.834Z,3.60
2022-09-25T21:11:43.541Z,3.30
2022-09-25T21:14:19.566Z,3.03
2022-09-25T21:16:51.291Z,3.80
2022-09-25T21:19:28.242Z,4.00
2022-09-25T21:21:59.064Z,4.30
2022-09-25T21:24:32.497Z,3.70
2022-09-25T21:27:03.192Z,3.73
2022-09-25T21:29:34.567Z,3.97
2022-09-25T21:32:05.578Z,3.43
2022-09-25T21:34:36.359Z,3.33
2022-09-25T21:37:07.143Z,3.60
2022-09-25T21:39:43.535Z,3.23
2022-09-25T21:42:15.039Z,3.47
2022-09-25T21:44:46.077Z,2.97
2022-09-25T21:47:19.145Z,3.80
2022-09-25T21:49:51.488Z,2.77
2022-09-25T21:52:22.160Z,3.20
2022-09-25T21:54:56.096Z,3.20
2022-09-25T21:57:27.040Z,3.33
2022-09-25T21:59:58.835Z,2.80
2022-09-25T22:02:32.040Z,2.70
2022-09-25T22:05:04.059Z,2.90
2022-09-25T22:07:36.286Z,2.97
2022-09-25T22:10:10.923Z,2.43
2022-09-25T22:12:41.676Z,2.47
2022-09-25T22:15:13.482Z,3.17
2022-09-25T22:17:44.191Z,2.70
2022-09-25T22:20:14.942Z,3.47
2022-09-25T22:22:46.707Z,2.97
2022-09-25T22:25:20.378Z,4.20
2022-09-25T22:27:51.083Z,4.10
2022-09-25T22:30:22.164Z,4.10
2022-09-25T22:32:52.955Z,4.60
2022-09-25T22:35:26.888Z,4.40
2022-09-25T22:37:57.670Z,3.10
2022-09-25T22:40:31.050Z,3.50
2022-09-25T22:43:04.471Z,3.27
2022-09-25T22:45:36.043Z,3.63
2022-09-25T22:48:09.321Z,2.73
2022-09-25T22:50:40.068Z,2.30
2022-09-25T22:53:12.353Z,2.83
2022-09-25T22:55:45.790Z,3.00
2022-09-25T22:58:16.881Z,2.30
2022-09-25T23:00:50.885Z,2.90
2022-09-25T23:03:25.264Z,2.30
2022-09-25T23:05:57.440Z,2.80
2022-09-25T23:08:28.531Z,2.20
2022-09-25T23:11:08.160Z,2.20
2022-09-25T23:13:40.512Z,2.50
2022-09-25T23:16:11.602Z,2.30
2022-09-25T23:18:45.313Z,2.60
2022-09-25T23:21:16.736Z,2.50
2022-09-25T23:23:49.608Z,2.30
2022-09-25T23:26:22.914Z,2.37
2022-09-25T23:28:53.755Z,2.13
2022-09-25T23:31:25.732Z,2.67
2022-09-25T23:33:56.585Z,2.90
2022-09-25T23:36:31.100Z,2.50
2022-09-25T23:39:03.079Z,2.03
2022-09-25T23:41:39.883Z,2.63
2022-09-25T23:44:13.341Z,2.30
2022-09-25T23:46:45.578Z,2.47
2022-09-25T23:49:17.351Z,2.20
2022-09-25T23:51:49.813Z,2.27
2022-09-25T23:54:20.985Z,2.50
2022-09-25T23:56:55.736Z,1.90
2022-09-25T23:59:26.713Z,3.00
